Terminal Aerodrome Forecast
Issued by NWS

Home | Current Version | Previous Version | Text Only | Print | Product List | Glossary On
Versions: 1 2 3 4 5 6 7 8 9 10 11 12 13
384
FTPA31 PHFO 290520
TAFHTO
TAF
PHTO 290520Z 2906/3006 23005KT P6SM VCSH FEW030 BKN050
     FM292000 12012KT P6SM VCSH SCT025 BKN045=

USA.gov is the U.S. government's official web portal to all federal, state and local government web resources and services.